Time;durP1;ratioP1;P1;durP2;ratioP2;P2;SDS_P1;SDS_P2;PMS_P1;PMS_P2;Temp;Humidity;BMP_temperature;BMP_pressure;BME280_temperature;BME280_humidity;BME280_pressure;Samples;Min_cycle;Max_cycle;Signal;HPM_P1;HPM_P2
2023/11/08 00:00:36;;;;;;;6.88;4.00;;;8.10;95.60;;;;;;4984283;28;20046;-69
2023/11/08 00:03:02;;;;;;;5.38;2.95;;;8.10;95.50;;;;;;4983475;28;20440;-68
2023/11/08 00:05:29;;;;;;;6.95;4.03;;;8.10;95.70;;;;;;4986538;28;20067;-68
2023/11/08 00:07:54;;;;;;;6.95;3.63;;;8.10;95.70;;;;;;4989871;28;20023;-69
2023/11/08 00:10:20;;;;;;;5.68;3.53;;;8.10;95.90;;;;;;4984975;28;20026;-69
2023/11/08 00:12:45;;;;;;;7.25;4.40;;;8.10;95.90;;;;;;4965679;28;20479;-69
2023/11/08 00:15:11;;;;;;;7.72;3.20;;;8.10;96.30;;;;;;4982387;28;20034;-68
2023/11/08 00:17:37;;;;;;;5.15;2.75;;;8.10;96.10;;;;;;4990064;28;20038;-68
2023/11/08 00:20:04;;;;;;;5.50;3.70;;;8.10;95.90;;;;;;4991792;28;20041;-68
2023/11/08 00:22:30;;;;;;;5.45;3.40;;;8.10;95.80;;;;;;4992037;28;20029;-68
2023/11/08 00:24:55;;;;;;;7.38;3.97;;;8.10;96.00;;;;;;4988282;28;20058;-69
2023/11/08 00:27:21;;;;;;;7.03;3.92;;;8.10;96.10;;;;;;4980922;28;20487;-70
2023/11/08 00:29:46;;;;;;;6.85;3.40;;;8.00;96.20;;;;;;4982742;28;20030;-69
2023/11/08 00:32:12;;;;;;;6.97;3.47;;;8.10;96.00;;;;;;4978728;28;20472;-68
2023/11/08 00:34:37;;;;;;;5.75;3.42;;;8.10;96.10;;;;;;4984728;28;20041;-68
2023/11/08 00:37:03;;;;;;;6.93;3.65;;;8.10;96.00;;;;;;4989703;28;20058;-68
2023/11/08 00:39:29;;;;;;;5.97;3.30;;;8.10;96.10;;;;;;4983392;28;20066;-69
2023/11/08 00:41:55;;;;;;;6.35;3.25;;;8.00;96.20;;;;;;4985609;28;20034;-68
2023/11/08 00:44:21;;;;;;;5.95;3.35;;;8.00;96.20;;;;;;4985356;28;20034;-68
2023/11/08 00:46:46;;;;;;;5.13;3.22;;;8.00;96.20;;;;;;4984935;28;20035;-68
2023/11/08 00:49:12;;;;;;;6.32;3.45;;;8.10;95.80;;;;;;4992081;28;20483;-68
2023/11/08 00:51:38;;;;;;;5.40;3.38;;;8.10;95.80;;;;;;4991100;28;20467;-68
2023/11/08 00:54:05;;;;;;;5.68;3.20;;;8.10;95.90;;;;;;4986333;28;20038;-68
2023/11/08 00:56:31;;;;;;;5.82;2.92;;;8.10;95.70;;;;;;4988541;28;20134;-69
2023/11/08 00:58:56;;;;;;;5.68;3.38;;;8.10;95.80;;;;;;4985966;28;20044;-69
2023/11/08 01:01:22;;;;;;;5.30;3.20;;;8.10;95.80;;;;;;4986591;28;20406;-67
2023/11/08 01:03:48;;;;;;;5.10;3.30;;;8.20;95.60;;;;;;4985312;28;20034;-68
2023/11/08 01:06:14;;;;;;;5.40;3.05;;;8.20;95.70;;;;;;4989936;28;20034;-68
2023/11/08 01:08:41;;;;;;;5.80;3.30;;;8.20;95.90;;;;;;4983217;28;20068;-68
2023/11/08 01:11:07;;;;;;;6.15;3.22;;;8.10;96.10;;;;;;4985661;28;20515;-68
2023/11/08 01:13:36;;;;;;;6.00;3.47;;;8.10;96.30;;;;;;4979819;28;20110;-69
2023/11/08 01:16:05;;;;;;;5.30;3.25;;;8.10;96.20;;;;;;4983318;28;20038;-70
2023/11/08 01:18:32;;;;;;;3.90;2.67;;;8.10;96.60;;;;;;4989449;28;20478;-67
2023/11/08 01:20:57;;;;;;;7.10;3.25;;;8.10;96.80;;;;;;4982381;28;20038;-68
2023/11/08 01:23:23;;;;;;;6.43;3.40;;;8.00;96.90;;;;;;4985494;28;20039;-68
2023/11/08 01:25:49;;;;;;;7.97;3.10;;;8.10;96.70;;;;;;4986258;28;20042;-68
2023/11/08 01:28:14;;;;;;;7.90;3.65;;;8.10;96.50;;;;;;4981453;28;20104;-68
2023/11/08 01:30:40;;;;;;;7.00;3.92;;;8.10;96.60;;;;;;4986039;28;20037;-70
2023/11/08 01:33:08;;;;;;;8.10;3.45;;;8.10;96.50;;;;;;4987128;28;20040;-68
2023/11/08 01:35:33;;;;;;;6.45;3.65;;;8.10;96.60;;;;;;4987112;28;20022;-68
2023/11/08 01:37:59;;;;;;;5.72;3.58;;;8.10;96.60;;;;;;4982986;28;20036;-68
2023/11/08 01:40:24;;;;;;;6.00;3.35;;;8.10;96.70;;;;;;4987552;28;20042;-68
2023/11/08 01:42:50;;;;;;;4.80;3.25;;;8.00;97.10;;;;;;4986039;28;20058;-68
2023/11/08 01:45:15;;;;;;;6.10;3.33;;;7.90;97.20;;;;;;4984925;28;20066;-70
2023/11/08 01:47:41;;;;;;;7.40;3.85;;;7.90;97.30;;;;;;4980800;28;20379;-68
2023/11/08 01:50:06;;;;;;;6.28;3.55;;;7.90;97.30;;;;;;4987787;28;20391;-68
2023/11/08 01:52:32;;;;;;;5.78;3.17;;;7.90;97.30;;;;;;4987408;28;20113;-69
2023/11/08 01:54:58;;;;;;;5.97;3.65;;;7.80;97.50;;;;;;4985629;28;20038;-68
2023/11/08 01:57:25;;;;;;;6.75;3.83;;;7.80;97.50;;;;;;4985271;28;20038;-70
2023/11/08 01:59:51;;;;;;;7.63;3.50;;;7.80;97.40;;;;;;4985750;28;20398;-70
2023/11/08 02:02:19;;;;;;;6.43;3.72;;;7.90;97.20;;;;;;4984156;28;20030;-69
2023/11/08 02:04:45;;;;;;;4.55;2.90;;;7.90;97.30;;;;;;4982299;28;20118;-68
2023/11/08 02:07:11;;;;;;;4.78;3.13;;;7.90;97.20;;;;;;4980659;28;20572;-69
2023/11/08 02:09:37;;;;;;;7.43;3.45;;;7.90;97.10;;;;;;4978211;28;20034;-68
2023/11/08 02:12:03;;;;;;;4.78;2.75;;;7.90;97.10;;;;;;4984150;28;20471;-68
2023/11/08 02:14:29;;;;;;;4.95;2.78;;;8.00;97.00;;;;;;4981252;28;20118;-70
2023/11/08 02:16:54;;;;;;;5.60;3.08;;;8.00;96.90;;;;;;4976543;28;20034;-70
2023/11/08 02:19:20;;;;;;;6.30;3.38;;;7.90;96.70;;;;;;4980650;28;20045;-69
2023/11/08 02:21:45;;;;;;;7.22;3.55;;;8.00;96.60;;;;;;4986284;28;20043;-70
2023/11/08 02:24:17;;;;;;;5.90;3.33;;;8.00;96.50;;;;;;4980606;28;20030;-71
2023/11/08 02:26:44;;;;;;;6.00;3.47;;;8.00;96.50;;;;;;4981368;28;20148;-69
2023/11/08 02:29:09;;;;;;;5.80;3.03;;;7.90;96.80;;;;;;4985874;28;20039;-69
2023/11/08 02:31:35;;;;;;;7.03;3.63;;;7.80;96.80;;;;;;4983870;28;20084;-69
2023/11/08 02:34:00;;;;;;;5.97;3.15;;;7.80;97.00;;;;;;4988615;28;20391;-69
2023/11/08 02:36:26;;;;;;;5.68;3.38;;;7.80;96.80;;;;;;4985064;28;20019;-70
2023/11/08 02:38:51;;;;;;;5.03;3.40;;;7.90;96.80;;;;;;4980472;28;20054;-69
2023/11/08 02:41:17;;;;;;;6.40;3.33;;;7.90;96.80;;;;;;4992321;28;20034;-70
2023/11/08 02:43:43;;;;;;;5.88;3.13;;;7.90;96.80;;;;;;4980731;28;20034;-69
2023/11/08 02:46:09;;;;;;;6.07;3.58;;;7.90;96.70;;;;;;4991415;28;20073;-69
2023/11/08 02:48:34;;;;;;;6.13;3.53;;;7.90;96.70;;;;;;4982313;28;20039;-69
2023/11/08 02:51:03;;;;;;;5.65;3.10;;;7.80;96.70;;;;;;4987347;28;20559;-69
2023/11/08 02:53:28;;;;;;;5.57;3.35;;;7.80;96.80;;;;;;4980982;28;20041;-69
2023/11/08 02:55:54;;;;;;;5.38;3.15;;;7.80;96.60;;;;;;4988560;28;20475;-70
2023/11/08 02:58:19;;;;;;;5.55;3.17;;;7.90;96.30;;;;;;4987997;28;20033;-69
2023/11/08 03:00:49;;;;;;;5.22;3.10;;;7.90;96.50;;;;;;4989652;28;20648;-69
2023/11/08 03:03:14;;;;;;;6.10;3.40;;;7.80;96.60;;;;;;4987149;28;20483;-69
2023/11/08 03:05:40;;;;;;;5.03;2.90;;;7.80;96.60;;;;;;4994852;28;20160;-69
2023/11/08 03:08:05;;;;;;;4.45;2.55;;;7.90;96.60;;;;;;4984917;28;20165;-70
2023/11/08 03:10:31;;;;;;;5.70;3.00;;;7.90;96.60;;;;;;4983225;28;20100;-68
2023/11/08 03:12:56;;;;;;;7.43;4.00;;;7.90;96.50;;;;;;4985857;28;20046;-70
2023/11/08 03:15:22;;;;;;;5.65;2.90;;;7.90;96.30;;;;;;4978282;28;20049;-70
2023/11/08 03:17:51;;;;;;;4.88;2.50;;;7.90;96.50;;;;;;4979617;28;20504;-72
2023/11/08 03:20:18;;;;;;;5.07;2.97;;;7.90;96.40;;;;;;4984818;28;20081;-71
2023/11/08 03:22:44;;;;;;;4.15;2.25;;;7.90;96.40;;;;;;4992294;28;20030;-69
2023/11/08 03:25:16;;;;;;;5.50;3.08;;;7.90;96.40;;;;;;4989200;28;20387;-69
2023/11/08 03:27:43;;;;;;;4.57;2.75;;;7.90;96.40;;;;;;4985697;28;20065;-70
2023/11/08 03:30:10;;;;;;;6.25;2.92;;;8.00;96.40;;;;;;4983450;28;20502;-72
2023/11/08 03:32:36;;;;;;;4.35;2.47;;;7.90;96.50;;;;;;4986189;28;20121;-70
2023/11/08 03:35:02;;;;;;;4.72;2.72;;;7.90;96.30;;;;;;4990165;28;20479;-72
2023/11/08 03:37:28;;;;;;;3.78;2.35;;;7.90;96.40;;;;;;4988203;28;20066;-69
2023/11/08 03:39:54;;;;;;;4.80;2.65;;;7.90;96.20;;;;;;4991195;28;20085;-69
2023/11/08 03:42:19;;;;;;;4.93;2.65;;;7.80;96.30;;;;;;4984279;28;20038;-70
2023/11/08 03:44:45;;;;;;;5.07;2.65;;;7.90;96.30;;;;;;4984595;28;20069;-69
2023/11/08 03:47:10;;;;;;;6.03;3.22;;;7.90;96.40;;;;;;4983136;28;20050;-70
2023/11/08 03:49:36;;;;;;;3.97;2.55;;;7.90;96.40;;;;;;4992224;28;20167;-71
2023/11/08 03:52:02;;;;;;;4.75;2.42;;;7.90;96.30;;;;;;4983793;28;20046;-69
2023/11/08 03:54:28;;;;;;;4.70;2.55;;;8.00;96.20;;;;;;4987582;28;20042;-69
2023/11/08 03:56:53;;;;;;;4.68;2.50;;;8.00;96.30;;;;;;4984004;28;20030;-69
2023/11/08 03:59:19;;;;;;;5.97;2.70;;;7.90;96.50;;;;;;4985065;28;20034;-70
2023/11/08 04:01:46;;;;;;;5.53;2.78;;;8.00;96.30;;;;;;4981366;28;20041;-70
2023/11/08 04:04:12;;;;;;;3.83;2.70;;;8.00;96.50;;;;;;4990390;28;20543;-69
2023/11/08 04:06:37;;;;;;;4.55;2.58;;;7.90;96.40;;;;;;4988345;28;20181;-71
2023/11/08 04:09:04;;;;;;;4.72;2.53;;;8.10;96.20;;;;;;4987470;28;20034;-69
2023/11/08 04:11:30;;;;;;;4.90;3.00;;;8.10;96.20;;;;;;4986592;28;20041;-69
2023/11/08 04:13:55;;;;;;;6.13;2.80;;;8.10;96.20;;;;;;4982112;28;20035;-71
2023/11/08 04:16:21;;;;;;;6.97;2.70;;;8.10;96.10;;;;;;4979044;28;20050;-72
2023/11/08 04:18:46;;;;;;;5.18;2.83;;;8.10;96.20;;;;;;4978861;28;20462;-70
2023/11/08 04:21:12;;;;;;;4.47;2.53;;;8.10;96.00;;;;;;4985479;28;20160;-69
2023/11/08 04:23:38;;;;;;;4.32;2.63;;;8.10;96.00;;;;;;4985243;28;20498;-70
2023/11/08 04:26:06;;;;;;;4.57;2.75;;;8.10;96.00;;;;;;4987772;28;20046;-70
2023/11/08 04:28:32;;;;;;;4.70;2.75;;;8.10;96.00;;;;;;4986640;28;20467;-69
2023/11/08 04:30:58;;;;;;;4.60;2.72;;;8.20;95.80;;;;;;4986890;28;20041;-69
2023/11/08 04:33:23;;;;;;;4.93;2.88;;;8.20;95.80;;;;;;4983981;28;20045;-71
2023/11/08 04:35:49;;;;;;;4.65;2.63;;;8.20;95.80;;;;;;4984554;28;20133;-70
2023/11/08 04:38:15;;;;;;;5.22;2.88;;;8.30;95.70;;;;;;4989191;28;20371;-69
2023/11/08 04:40:40;;;;;;;4.95;2.45;;;8.20;95.90;;;;;;4987382;28;22596;-69
2023/11/08 04:43:06;;;;;;;7.45;3.30;;;8.20;96.10;;;;;;4985638;28;20031;-70
2023/11/08 04:45:31;;;;;;;6.05;3.08;;;8.20;96.10;;;;;;4980551;28;20043;-69
2023/11/08 04:47:57;;;;;;;5.82;3.03;;;8.20;95.90;;;;;;4985145;28;20039;-69
2023/11/08 04:50:22;;;;;;;4.05;2.50;;;8.20;95.90;;;;;;4979803;28;20244;-68
2023/11/08 04:52:48;;;;;;;3.75;2.45;;;8.30;96.00;;;;;;4985468;28;20033;-69
2023/11/08 04:55:13;;;;;;;5.78;2.72;;;8.20;96.10;;;;;;4987708;28;20044;-73
2023/11/08 04:57:39;;;;;;;3.67;2.38;;;8.20;96.00;;;;;;4984105;28;20210;-69
2023/11/08 05:00:05;;;;;;;5.63;3.17;;;8.20;95.90;;;;;;4984355;28;20045;-70
2023/11/08 05:02:34;;;;;;;5.90;3.05;;;8.20;95.90;;;;;;4978508;28;20470;-69
2023/11/08 05:05:00;;;;;;;4.63;2.65;;;8.20;96.00;;;;;;4984751;28;20036;-72
2023/11/08 05:07:25;;;;;;;5.35;2.67;;;8.20;95.80;;;;;;4977606;28;20107;-70
2023/11/08 05:09:53;;;;;;;5.35;2.88;;;8.20;95.90;;;;;;4982617;28;20034;-70
2023/11/08 05:12:19;;;;;;;4.45;2.42;;;8.20;95.90;;;;;;4984298;28;20150;-71
2023/11/08 05:14:45;;;;;;;5.35;3.05;;;8.20;96.10;;;;;;4986996;28;20047;-69
2023/11/08 05:17:10;;;;;;;6.88;3.47;;;8.20;96.20;;;;;;4983107;28;20126;-70
2023/11/08 05:19:36;;;;;;;5.47;3.05;;;8.10;96.10;;;;;;4980948;28;20057;-69
2023/11/08 05:22:02;;;;;;;5.90;2.83;;;8.20;96.10;;;;;;4984893;28;20042;-69
2023/11/08 05:24:28;;;;;;;4.97;2.92;;;8.10;96.20;;;;;;4985837;28;20073;-69
2023/11/08 05:26:53;;;;;;;4.30;2.55;;;8.10;96.10;;;;;;4982205;28;20491;-66
2023/11/08 05:29:19;;;;;;;4.85;2.78;;;8.20;96.20;;;;;;4981159;28;20502;-66
2023/11/08 05:31:45;;;;;;;4.05;2.17;;;8.10;96.10;;;;;;4980598;28;20360;-67
2023/11/08 05:34:11;;;;;;;4.03;2.50;;;8.20;96.00;;;;;;4987674;28;20065;-66
2023/11/08 05:36:36;;;;;;;4.88;2.90;;;8.10;95.90;;;;;;4984886;28;20050;-68
2023/11/08 05:39:03;;;;;;;4.72;2.33;;;8.10;95.90;;;;;;4980036;28;20089;-67
2023/11/08 05:41:29;;;;;;;6.43;3.08;;;8.10;96.10;;;;;;4981170;28;20027;-68
2023/11/08 05:43:57;;;;;;;4.55;2.58;;;8.10;96.10;;;;;;4980993;28;20053;-70
2023/11/08 05:46:27;;;;;;;4.53;2.92;;;8.10;96.20;;;;;;4986211;28;20027;-67
2023/11/08 05:48:57;;;;;;;5.03;2.57;;;8.10;96.20;;;;;;4980728;28;20058;-67
2023/11/08 05:51:25;;;;;;;5.03;3.20;;;8.10;96.40;;;;;;4984499;28;20026;-68
2023/11/08 05:53:50;;;;;;;4.95;2.95;;;8.10;96.30;;;;;;4987092;28;20034;-67
2023/11/08 05:56:16;;;;;;;4.70;2.63;;;8.10;96.40;;;;;;4983565;28;20140;-68
2023/11/08 05:58:41;;;;;;;4.75;2.65;;;8.10;96.60;;;;;;4984708;28;20081;-67
2023/11/08 06:01:07;;;;;;;5.25;3.03;;;8.10;96.60;;;;;;4977905;28;20074;-67
2023/11/08 06:03:32;;;;;;;4.72;2.80;;;8.00;96.60;;;;;;4986884;28;20053;-67
2023/11/08 06:05:58;;;;;;;5.95;2.92;;;8.00;96.40;;;;;;4988734;28;20041;-68
2023/11/08 06:08:24;;;;;;;7.00;3.30;;;7.90;96.40;;;;;;4985614;28;20459;-67
2023/11/08 06:10:49;;;;;;;5.32;2.65;;;7.80;96.70;;;;;;4984608;28;20062;-69
2023/11/08 06:13:15;;;;;;;5.78;3.13;;;7.80;96.90;;;;;;4985525;28;20040;-66
2023/11/08 06:15:41;;;;;;;4.95;2.67;;;7.80;97.00;;;;;;4988673;28;20285;-66
2023/11/08 06:18:08;;;;;;;5.70;2.95;;;7.90;97.00;;;;;;4987361;28;20088;-67
2023/11/08 06:20:34;;;;;;;5.60;2.65;;;7.90;96.90;;;;;;4991396;28;20035;-66
2023/11/08 06:23:00;;;;;;;6.05;2.92;;;8.00;96.70;;;;;;4992282;28;20023;-69
2023/11/08 06:25:25;;;;;;;5.13;2.80;;;8.00;96.70;;;;;;4985666;28;20218;-68
2023/11/08 06:27:51;;;;;;;3.15;2.28;;;8.00;96.70;;;;;;4986255;28;20058;-67
2023/11/08 06:30:16;;;;;;;5.25;3.10;;;8.00;96.70;;;;;;4986749;28;20043;-68
2023/11/08 06:32:43;;;;;;;4.50;2.50;;;8.00;96.70;;;;;;4993246;28;20125;-69
2023/11/08 06:35:08;;;;;;;4.10;2.70;;;8.00;96.60;;;;;;4985665;28;20045;-67
2023/11/08 06:37:34;;;;;;;4.72;2.55;;;7.90;96.70;;;;;;4994157;28;20034;-68
2023/11/08 06:39:59;;;;;;;5.05;2.72;;;7.90;96.80;;;;;;4993306;28;20049;-67
2023/11/08 06:42:25;;;;;;;6.53;3.17;;;7.90;96.80;;;;;;4989649;28;20049;-69
2023/11/08 06:44:51;;;;;;;4.55;2.75;;;7.90;97.00;;;;;;4984039;28;20041;-67
2023/11/08 06:47:17;;;;;;;6.25;3.63;;;7.80;97.10;;;;;;4989836;28;20426;-69
2023/11/08 06:49:43;;;;;;;5.07;2.83;;;7.80;97.20;;;;;;4995171;28;20035;-68
2023/11/08 06:52:08;;;;;;;5.55;3.10;;;7.80;97.20;;;;;;4990627;28;20034;-68
2023/11/08 06:54:34;;;;;;;5.22;3.15;;;7.70;97.50;;;;;;4993525;28;20022;-68
2023/11/08 06:57:00;;;;;;;4.90;2.70;;;7.70;97.50;;;;;;4991932;28;20030;-67
2023/11/08 06:59:26;;;;;;;6.57;2.95;;;7.70;97.60;;;;;;4984691;28;20027;-70
2023/11/08 07:01:51;;;;;;;6.57;3.15;;;7.80;97.70;;;;;;4986762;28;20034;-68
2023/11/08 07:04:17;;;;;;;5.13;2.65;;;7.80;97.60;;;;;;4989769;28;20483;-67
2023/11/08 07:06:42;;;;;;;6.53;4.07;;;7.90;97.60;;;;;;4988806;28;20023;-67
2023/11/08 07:09:11;;;;;;;5.65;3.08;;;7.90;97.50;;;;;;4989784;28;20472;-70
2023/11/08 07:11:37;;;;;;;4.45;3.03;;;7.90;97.40;;;;;;4988003;28;20034;-68
2023/11/08 07:14:02;;;;;;;6.07;3.50;;;7.90;97.40;;;;;;4987547;28;20388;-67
2023/11/08 07:16:28;;;;;;;5.93;3.00;;;7.90;97.40;;;;;;4989015;28;20113;-68
2023/11/08 07:18:55;;;;;;;6.28;3.75;;;7.90;97.60;;;;;;4991234;28;20383;-68
2023/11/08 07:21:21;;;;;;;8.15;3.83;;;7.90;97.60;;;;;;4990230;28;20034;-67
2023/11/08 07:23:48;;;;;;;6.53;3.58;;;7.90;97.60;;;;;;4992290;28;20038;-69
2023/11/08 07:26:15;;;;;;;5.15;2.92;;;7.90;97.50;;;;;;4987601;28;20046;-70
2023/11/08 07:28:43;;;;;;;6.03;3.40;;;7.90;97.50;;;;;;4988002;28;20033;-68
2023/11/08 07:31:08;;;;;;;5.43;3.08;;;8.00;97.40;;;;;;4985522;28;20042;-68
2023/11/08 07:33:35;;;;;;;5.63;3.40;;;8.00;97.30;;;;;;4993124;28;20483;-67
2023/11/08 07:36:01;;;;;;;4.35;2.55;;;8.00;97.30;;;;;;4985484;28;20080;-67
2023/11/08 07:38:26;;;;;;;6.28;3.40;;;8.10;97.30;;;;;;4991812;28;20050;-68
2023/11/08 07:40:52;;;;;;;7.05;3.75;;;8.10;97.30;;;;;;4991552;28;20040;-68
2023/11/08 07:43:17;;;;;;;5.50;3.30;;;8.10;97.10;;;;;;4985429;28;20077;-68
2023/11/08 07:45:43;;;;;;;6.30;3.67;;;8.10;97.00;;;;;;4992817;28;20031;-68
2023/11/08 07:48:08;;;;;;;5.57;2.97;;;8.20;97.00;;;;;;4990105;28;20053;-69
2023/11/08 07:50:34;;;;;;;5.45;3.00;;;8.10;96.90;;;;;;4992235;28;20041;-68
2023/11/08 07:52:59;;;;;;;6.38;3.45;;;8.20;96.90;;;;;;4993249;28;20375;-68
2023/11/08 07:55:25;;;;;;;6.60;3.40;;;8.20;96.60;;;;;;4992335;28;20070;-68
2023/11/08 07:57:50;;;;;;;6.20;3.40;;;8.20;96.60;;;;;;4989453;28;20483;-70
2023/11/08 08:00:22;;;;;;;5.10;3.00;;;8.20;96.70;;;;;;4988798;28;20053;-69
2023/11/08 08:02:48;;;;;;;6.03;3.35;;;8.20;96.60;;;;;;4992348;28;20033;-68
2023/11/08 08:05:13;;;;;;;9.55;3.55;;;8.20;96.50;;;;;;4988095;28;20026;-67
2023/11/08 08:07:39;;;;;;;6.50;3.25;;;8.30;96.30;;;;;;4990504;28;20026;-70
2023/11/08 08:10:06;;;;;;;5.22;3.00;;;8.30;96.30;;;;;;4992858;28;20031;-69
2023/11/08 08:12:33;;;;;;;8.73;3.30;;;8.30;96.40;;;;;;4989122;28;20022;-68
2023/11/08 08:14:58;;;;;;;5.50;2.58;;;8.30;96.30;;;;;;4988283;28;20039;-67
2023/11/08 08:17:24;;;;;;;5.32;2.70;;;8.30;96.30;;;;;;4989705;28;20033;-68
2023/11/08 08:19:52;;;;;;;6.32;2.80;;;8.40;96.40;;;;;;4992978;28;20034;-68
2023/11/08 08:22:19;;;;;;;5.90;3.15;;;8.30;96.40;;;;;;4988722;28;20434;-69
2023/11/08 08:24:45;;;;;;;5.68;2.83;;;8.40;96.40;;;;;;4991694;28;20034;-67
2023/11/08 08:27:11;;;;;;;5.65;3.35;;;8.40;96.60;;;;;;4991498;28;20155;-67
2023/11/08 08:29:36;;;;;;;6.13;2.97;;;8.40;96.70;;;;;;4987587;28;20041;-68
2023/11/08 08:32:03;;;;;;;6.55;3.38;;;8.40;96.80;;;;;;4987590;28;20030;-67
2023/11/08 08:34:28;;;;;;;6.00;3.75;;;8.40;96.90;;;;;;4992231;28;20109;-68
2023/11/08 08:36:54;;;;;;;4.85;3.08;;;8.40;96.90;;;;;;4986564;28;20169;-67
2023/11/08 08:39:24;;;;;;;6.68;3.05;;;8.40;96.90;;;;;;4994540;28;20042;-68
2023/11/08 08:41:49;;;;;;;5.95;3.13;;;8.50;96.80;;;;;;4993710;28;20030;-67
2023/11/08 08:44:15;;;;;;;4.65;2.58;;;8.50;96.60;;;;;;4985439;28;20041;-67
2023/11/08 08:46:43;;;;;;;6.75;3.30;;;8.50;96.60;;;;;;4987270;28;20168;-67
2023/11/08 08:49:08;;;;;;;5.88;3.47;;;8.50;96.60;;;;;;4992203;28;20139;-68
2023/11/08 08:51:33;;;;;;;7.90;3.50;;;8.50;96.50;;;;;;4988655;28;20066;-68
2023/11/08 08:53:59;;;;;;;7.15;3.58;;;8.60;96.30;;;;;;4991001;28;20027;-67
2023/11/08 08:56:25;;;;;;;4.85;2.67;;;8.60;96.40;;;;;;4990794;28;20418;-68
2023/11/08 08:58:51;;;;;;;6.53;3.90;;;8.60;96.50;;;;;;4988658;28;20037;-68
2023/11/08 09:01:18;;;;;;;5.20;2.83;;;8.60;96.10;;;;;;4990107;28;20049;-68
2023/11/08 09:03:45;;;;;;;6.20;3.35;;;8.70;96.00;;;;;;4991957;28;20035;-67
2023/11/08 09:06:11;;;;;;;4.55;2.85;;;8.70;95.90;;;;;;4990027;28;20054;-67
2023/11/08 09:08:37;;;;;;;5.25;3.03;;;8.70;95.80;;;;;;4990109;28;20062;-70
2023/11/08 09:11:03;;;;;;;5.57;3.15;;;8.70;96.10;;;;;;4989536;28;20127;-68
2023/11/08 09:13:29;;;;;;;6.75;3.35;;;8.70;96.10;;;;;;4989061;28;20100;-68
2023/11/08 09:15:55;;;;;;;6.07;3.15;;;8.70;96.10;;;;;;4984740;28;20503;-68
2023/11/08 09:18:20;;;;;;;5.47;2.88;;;8.70;96.10;;;;;;4988773;28;20117;-68
2023/11/08 09:20:47;;;;;;;6.80;3.58;;;8.70;96.10;;;;;;4989850;28;20034;-69
2023/11/08 09:23:13;;;;;;;6.53;3.38;;;8.70;96.00;;;;;;4989582;28;20109;-67
2023/11/08 09:25:38;;;;;;;6.90;3.33;;;8.80;96.00;;;;;;4988909;28;20530;-69
2023/11/08 09:28:04;;;;;;;5.63;2.97;;;8.80;95.80;;;;;;4982744;28;20046;-68
2023/11/08 09:30:30;;;;;;;6.25;3.13;;;8.90;95.90;;;;;;4985568;28;20042;-67
2023/11/08 09:32:56;;;;;;;6.55;3.60;;;9.00;95.70;;;;;;4991029;28;20463;-68
2023/11/08 09:35:24;;;;;;;5.57;2.95;;;9.00;95.70;;;;;;4992930;28;20045;-68
2023/11/08 09:37:49;;;;;;;7.25;3.90;;;9.00;95.20;;;;;;4989314;28;20026;-71
2023/11/08 09:40:15;;;;;;;5.57;3.33;;;9.10;95.20;;;;;;4986133;28;20491;-68
2023/11/08 09:42:40;;;;;;;5.70;3.55;;;9.10;95.20;;;;;;4985037;28;20031;-69
2023/11/08 09:45:09;;;;;;;7.38;4.72;;;9.10;95.20;;;;;;4988240;28;20439;-68
2023/11/08 09:47:36;;;;;;;6.97;3.78;;;9.20;95.20;;;;;;4988220;28;20096;-67
2023/11/08 09:50:06;;;;;;;8.25;4.10;;;9.20;95.00;;;;;;4988277;28;20066;-69
2023/11/08 09:52:31;;;;;;;6.57;3.53;;;9.20;95.10;;;;;;5003527;28;20034;-68
2023/11/08 09:54:57;;;;;;;7.43;3.67;;;9.30;95.00;;;;;;4990699;28;20038;-70
2023/11/08 09:57:25;;;;;;;6.78;3.17;;;9.20;94.70;;;;;;4985962;28;20038;-70
2023/11/08 09:59:52;;;;;;;5.65;3.28;;;9.30;94.70;;;;;;4988477;28;20026;-69
2023/11/08 10:02:18;;;;;;;6.20;3.42;;;9.60;94.40;;;;;;4986425;28;20046;-67
2023/11/08 10:04:45;;;;;;;6.88;3.65;;;9.70;94.20;;;;;;4989202;28;20034;-68
2023/11/08 10:07:10;;;;;;;7.55;3.10;;;9.90;93.60;;;;;;4986618;28;20035;-68
2023/11/08 10:09:38;;;;;;;6.13;3.05;;;9.80;93.10;;;;;;4990244;28;20038;-68
2023/11/08 10:12:05;;;;;;;6.55;3.35;;;9.90;93.00;;;;;;4988351;28;20041;-68
2023/11/08 10:14:32;;;;;;;7.18;3.35;;;9.90;92.80;;;;;;4983945;28;20030;-68
2023/11/08 10:16:58;;;;;;;6.53;3.42;;;10.00;92.60;;;;;;4987746;28;20081;-68
2023/11/08 10:19:41;;;;;;;4.82;2.50;;;10.10;93.20;;;;;;4990872;28;20042;-69
2023/11/08 10:22:18;;;;;;;4.95;2.90;;;10.10;92.50;;;;;;4986509;28;20035;-68
2023/11/08 10:24:57;;;;;;;5.53;2.75;;;10.10;92.40;;;;;;4990009;28;20034;-68
2023/11/08 10:27:26;;;;;;;3.83;2.50;;;10.20;91.90;;;;;;4986044;28;20066;-71
2023/11/08 10:29:54;;;;;;;5.05;2.85;;;10.10;91.80;;;;;;4987050;28;20046;-68
2023/11/08 10:32:22;;;;;;;6.40;2.88;;;10.10;92.30;;;;;;4992964;28;20059;-68
2023/11/08 10:34:47;;;;;;;4.88;2.58;;;10.10;91.90;;;;;;5005844;28;20061;-68
2023/11/08 10:37:24;;;;;;;7.07;2.65;;;10.10;91.50;;;;;;4988281;28;20026;-70
2023/11/08 10:39:51;;;;;;;5.30;2.55;;;10.20;92.00;;;;;;4987830;28;20038;-68
2023/11/08 10:42:17;;;;;;;5.05;2.90;;;10.20;91.10;;;;;;4987212;28;20475;-68
2023/11/08 10:44:42;;;;;;;4.13;2.35;;;10.10;91.60;;;;;;4988610;28;20146;-67
2023/11/08 10:47:08;;;;;;;3.85;2.28;;;10.00;91.60;;;;;;4986848;28;20129;-67
2023/11/08 10:49:35;;;;;;;3.40;2.08;;;10.10;91.70;;;;;;4988099;28;20035;-67
2023/11/08 10:52:02;;;;;;;4.15;2.28;;;10.00;91.60;;;;;;4988123;28;20052;-68
2023/11/08 10:54:30;;;;;;;3.80;2.00;;;10.10;91.40;;;;;;4987182;28;20498;-68
2023/11/08 10:56:59;;;;;;;3.47;1.95;;;10.10;91.20;;;;;;4987862;28;20040;-70
2023/11/08 10:59:27;;;;;;;3.72;2.08;;;10.10;91.40;;;;;;4988850;28;20036;-67
2023/11/08 11:01:54;;;;;;;5.90;2.65;;;10.20;91.30;;;;;;4992351;28;20045;-67
2023/11/08 11:04:23;;;;;;;3.22;1.80;;;10.20;91.00;;;;;;4994458;28;20049;-68
2023/11/08 11:06:49;;;;;;;3.35;1.85;;;10.30;90.70;;;;;;4992426;28;20105;-68
2023/11/08 11:09:16;;;;;;;4.40;2.10;;;10.30;91.10;;;;;;4992474;28;20375;-68
2023/11/08 11:11:44;;;;;;;3.55;2.10;;;10.30;90.60;;;;;;4983744;28;20041;-67
2023/11/08 11:14:33;;;;;;;4.70;2.38;;;10.30;90.90;;;;;;4987979;28;20375;-67
2023/11/08 11:17:10;;;;;;;3.42;1.85;;;10.30;90.30;;;;;;4991570;28;20966;-67
2023/11/08 11:19:41;;;;;;;4.28;2.15;;;10.20;90.80;;;;;;4992946;28;20030;-69
2023/11/08 11:22:11;;;;;;;3.50;1.38;;;10.20;90.90;;;;;;4990307;28;20030;-67
2023/11/08 11:24:39;;;;;;;3.07;1.70;;;10.30;91.40;;;;;;4992520;28;20027;-67
2023/11/08 11:27:06;;;;;;;3.17;1.65;;;10.30;90.90;;;;;;4988429;28;20058;-68
2023/11/08 11:29:33;;;;;;;6.63;1.65;;;10.40;90.90;;;;;;4990611;28;20064;-71
2023/11/08 11:32:04;;;;;;;3.88;2.08;;;10.50;90.40;;;;;;4989563;28;20039;-68
2023/11/08 11:34:32;;;;;;;3.33;2.15;;;10.50;90.20;;;;;;4993246;28;20459;-69
2023/11/08 11:37:10;;;;;;;4.55;2.10;;;10.40;90.20;;;;;;4993410;28;20041;-67
2023/11/08 11:39:38;;;;;;;3.97;2.03;;;10.40;89.90;;;;;;4992244;28;20034;-68
2023/11/08 11:42:06;;;;;;;7.70;2.38;;;10.30;90.10;;;;;;4982596;28;20046;-67
2023/11/08 11:44:46;;;;;;;3.83;1.95;;;10.20;89.70;;;;;;4987295;28;20356;-67
2023/11/08 11:47:14;;;;;;;3.60;1.35;;;10.20;89.90;;;;;;4991736;28;20030;-67
2023/11/08 11:49:48;;;;;;;3.90;1.73;;;10.30;89.90;;;;;;4992655;28;20038;-68
2023/11/08 11:52:15;;;;;;;2.10;1.40;;;10.40;90.20;;;;;;4994623;28;20386;-67
2023/11/08 11:54:51;;;;;;;3.22;1.65;;;10.30;90.00;;;;;;4989543;28;20033;-67
2023/11/08 11:57:19;;;;;;;2.88;1.63;;;10.30;89.90;;;;;;4984372;28;20049;-68
2023/11/08 11:59:47;;;;;;;2.78;1.60;;;10.30;90.10;;;;;;4987426;28;20022;-67
2023/11/08 12:02:12;;;;;;;3.35;1.50;;;10.30;89.80;;;;;;4988458;28;20031;-67
2023/11/08 12:04:39;;;;;;;3.13;1.73;;;10.30;89.50;;;;;;4992635;28;20125;-67
2023/11/08 12:07:09;;;;;;;1.98;1.45;;;10.30;89.20;;;;;;4987429;28;20035;-66
2023/11/08 12:09:39;;;;;;;2.83;1.35;;;10.40;89.30;;;;;;4993490;28;20064;-67
2023/11/08 12:12:06;;;;;;;2.95;1.45;;;10.50;89.60;;;;;;4989655;28;20034;-69
2023/11/08 12:14:32;;;;;;;2.65;1.05;;;10.50;88.80;;;;;;4985940;28;20031;-68
2023/11/08 12:16:58;;;;;;;3.72;1.52;;;10.50;89.00;;;;;;4984719;28;20105;-68
2023/11/08 12:19:30;;;;;;;2.55;1.17;;;10.50;89.00;;;;;;4992851;28;20065;-67
2023/11/08 12:21:56;;;;;;;1.98;1.13;;;10.50;88.80;;;;;;4992572;28;20116;-68
2023/11/08 12:24:21;;;;;;;2.13;1.23;;;10.40;87.90;;;;;;4993164;28;20110;-67
2023/11/08 12:26:48;;;;;;;1.30;1.00;;;10.40;87.70;;;;;;4985458;28;20486;-68
2023/11/08 12:29:13;;;;;;;1.90;1.20;;;10.40;88.60;;;;;;4990719;28;20080;-67
2023/11/08 12:31:39;;;;;;;3.38;1.30;;;10.40;88.60;;;;;;4985038;28;20042;-67
2023/11/08 12:34:06;;;;;;;2.95;1.48;;;10.50;87.70;;;;;;4992051;28;20022;-69
2023/11/08 12:36:36;;;;;;;3.70;1.15;;;10.80;87.90;;;;;;4988935;28;20034;-69
2023/11/08 12:39:05;;;;;;;1.10;0.93;;;10.70;87.20;;;;;;4992165;28;20044;-67
2023/11/08 12:41:46;;;;;;;3.63;1.10;;;10.70;87.60;;;;;;4986236;28;20037;-67
2023/11/08 12:44:13;;;;;;;;;;;10.60;87.80;;;;;;4989346;28;20030;-68
2023/11/08 12:46:56;;;;;;;3.17;0.98;;;10.70;87.70;;;;;;4988337;28;19909;-67
2023/11/08 12:49:32;;;;;;;2.15;1.17;;;10.60;88.00;;;;;;4989185;28;20043;-69
2023/11/08 12:52:05;;;;;;;2.10;1.13;;;10.70;87.80;;;;;;4987543;28;20038;-68